Time;durP1;ratioP1;P1;durP2;ratioP2;P2;SDS_P1;SDS_P2;PMS_P1;PMS_P2;Temp;Humidity;BMP_temperature;BMP_pressure;BME280_temperature;BME280_humidity;BME280_pressure;Samples;Min_cycle;Max_cycle;Signal;HPM_P1;HPM_P2
2021/10/12 05:20:20;;;;;;;65.67;46.65;;;;;;;5.87;89.26;97757.28;1871358;76;22698;-60
2021/10/12 05:22:47;;;;;;;54.05;36.48;;;;;;;5.84;89.37;97759.66;1810627;77;20875;-63
2021/10/12 05:25:15;;;;;;;44.55;33.73;;;;;;;5.87;89.44;97757.81;1805309;78;21043;-61
2021/10/12 05:27:41;;;;;;;44.70;30.17;;;;;;;5.90;89.62;97761.27;1795280;78;20919;-60
2021/10/12 05:30:13;;;;;;;42.78;30.15;;;;;;;5.96;89.71;97761.53;1806524;77;21070;-59
2021/10/12 05:32:40;;;;;;;45.08;31.52;;;;;;;6.01;89.75;97764.19;1820112;78;20997;-58
2021/10/12 05:35:09;;;;;;;44.45;31.62;;;;;;;6.11;89.74;97758.88;1827314;78;20861;-58
2021/10/12 05:37:36;;;;;;;43.42;31.00;;;;;;;6.22;89.73;97754.37;1827769;78;21929;-60
2021/10/12 05:40:05;;;;;;;43.00;29.75;;;;;;;6.30;89.62;97754.61;1827670;78;20916;-58
2021/10/12 05:42:32;;;;;;;39.15;29.63;;;;;;;6.39;89.44;97756.19;1827772;78;20955;-61
2021/10/12 05:44:59;;;;;;;38.73;28.02;;;;;;;6.45;89.36;97758.59;1827922;78;20916;-60
2021/10/12 05:47:25;;;;;;;41.98;30.43;;;;;;;6.48;89.26;97748.72;1826959;78;20994;-60
2021/10/12 05:49:52;;;;;;;39.27;29.25;;;;;;;6.54;89.13;97758.30;1810654;78;22551;-59
2021/10/12 05:52:22;;;;;;;44.33;28.90;;;;;;;6.59;89.02;97758.30;1794390;80;20981;-64
2021/10/12 05:55:09;;;;;;;40.35;28.38;;;;;;;6.66;88.87;97758.01;1793811;80;20963;-61
2021/10/12 06:00:09;;;;;;;36.38;25.70;;;;;;;6.75;88.55;97748.39;1795466;77;21017;-64
2021/10/12 06:02:41;;;;;;;38.33;28.20;;;;;;;6.78;88.46;97747.86;1799390;78;21198;-70
2021/10/12 06:05:10;;;;;;;44.27;30.00;;;;;;;6.84;88.32;97747.56;1816163;77;20993;-63
2021/10/12 06:07:39;;;;;;;42.17;29.25;;;;;;;6.90;88.13;97746.47;1815670;77;20849;-65
2021/10/12 06:10:07;;;;;;;42.58;29.40;;;;;;;6.97;87.91;97745.39;1818859;78;21419;-59
2021/10/12 06:12:34;;;;;;;40.17;28.70;;;;;;;6.99;87.75;97747.24;1827832;78;20965;-60
2021/10/12 06:15:01;;;;;;;40.83;27.73;;;;;;;7.02;87.57;97743.48;1798407;77;21707;-60
2021/10/12 06:17:28;;;;;;;39.23;28.05;;;;;;;7.08;87.42;97752.26;1815850;78;20955;-65
2021/10/12 06:19:55;;;;;;;46.45;29.87;;;;;;;7.10;87.33;97753.58;1786494;79;20952;-63
2021/10/12 06:22:22;;;;;;;46.55;31.33;;;;;;;7.12;87.25;97749.30;1804295;79;21043;-61
2021/10/12 06:24:49;;;;;;;46.83;31.62;;;;;;;7.15;87.14;97756.76;1792456;78;21565;-59
2021/10/12 06:27:16;;;;;;;48.83;32.15;;;;;;;7.18;87.05;97757.55;1787517;77;21111;-61
2021/10/12 06:29:44;;;;;;;44.27;32.17;;;;;;;7.24;86.93;97756.44;1791070;79;21094;-62
2021/10/12 06:32:12;;;;;;;51.77;31.82;;;;;;;7.26;86.75;97755.10;1728427;80;21147;-63
2021/10/12 06:34:39;;;;;;;44.98;31.60;;;;;;;7.30;86.57;97756.70;1764127;81;21055;-62
2021/10/12 06:37:06;;;;;;;48.38;32.40;;;;;;;7.29;86.40;97757.75;1743072;81;21075;-60
2021/10/12 06:39:35;;;;;;;47.85;32.85;;;;;;;7.31;86.42;97761.73;1764504;81;22142;-61
2021/10/12 06:42:04;;;;;;;45.43;30.02;;;;;;;7.35;86.40;97763.30;1745071;81;21103;-59
2021/10/12 06:44:34;;;;;;;45.55;32.93;;;;;;;7.37;86.04;97763.85;1760574;80;21399;-62
2021/10/12 06:47:02;;;;;;;50.30;31.97;;;;;;;7.32;86.01;97769.20;1759193;81;20944;-57
2021/10/12 06:49:33;;;;;;;43.35;32.60;;;;;;;7.32;86.00;97769.20;1739157;81;21549;-61
2021/10/12 06:52:01;;;;;;;50.65;34.27;;;;;;;7.31;86.05;97779.59;1754974;81;21684;-60
2021/10/12 06:54:30;;;;;;;49.38;37.67;;;;;;;7.30;86.12;97768.69;1764159;81;21050;-62
2021/10/12 06:57:11;;;;;;;44.00;32.98;;;;;;;7.30;86.16;97772.68;1764976;80;21111;-64
2021/10/12 06:59:39;;;;;;;46.33;34.38;;;;;;;7.33;86.23;97776.11;1762754;80;21027;-64
2021/10/12 07:02:09;;;;;;;45.92;34.60;;;;;;;7.38;86.20;97778.22;1765544;81;20987;-63
2021/10/12 07:04:39;;;;;;;48.65;31.07;;;;;;;7.40;86.14;97779.27;1764779;81;21730;-64
2021/10/12 07:07:06;;;;;;;45.45;32.13;;;;;;;7.44;86.13;97775.78;1764395;81;20975;-65
2021/10/12 07:09:33;;;;;;;44.48;33.28;;;;;;;7.46;86.09;97786.18;1764302;81;21030;-63
2021/10/12 07:12:01;;;;;;;44.13;34.90;;;;;;;7.50;85.98;97773.89;1764737;81;21472;-60
2021/10/12 07:14:28;;;;;;;47.08;36.28;;;;;;;7.56;86.01;97777.58;1767949;79;21119;-66
2021/10/12 07:16:58;;;;;;;45.55;33.98;;;;;;;7.62;85.70;97770.89;1751865;79;21543;-60
2021/10/12 07:19:27;;;;;;;43.00;32.63;;;;;;;7.65;85.08;97769.81;1752262;79;20902;-60
2021/10/12 07:21:54;;;;;;;48.85;32.60;;;;;;;7.70;84.93;97776.42;1825976;77;20884;-60
2021/10/12 07:24:22;;;;;;;46.80;31.85;;;;;;;7.72;84.60;97776.97;1829233;77;20844;-63
2021/10/12 07:26:51;;;;;;;43.80;31.07;;;;;;;7.73;84.54;97780.41;1834811;77;21453;-62
2021/10/12 07:29:18;;;;;;;49.23;33.05;;;;;;;7.78;83.90;97776.37;1823243;77;21136;-61
2021/10/12 07:31:45;;;;;;;46.73;34.98;;;;;;;7.78;83.51;97780.38;1843887;77;20940;-62
2021/10/12 07:34:12;;;;;;;47.27;34.45;;;;;;;7.82;83.64;97780.88;1824483;78;20997;-59
2021/10/12 07:36:38;;;;;;;48.68;33.18;;;;;;;7.90;83.68;97784.30;1824725;78;20923;-66
2021/10/12 07:39:06;;;;;;;45.48;31.33;;;;;;;7.97;83.29;97780.78;1824487;78;20923;-61
2021/10/12 07:41:35;;;;;;;42.48;32.15;;;;;;;7.98;82.78;97783.72;1824363;78;20987;-64
2021/10/12 07:44:02;;;;;;;52.00;33.50;;;;;;;8.00;82.53;97781.57;1824439;77;20881;-63
2021/10/12 07:46:32;;;;;;;49.35;33.95;;;;;;;7.95;82.34;97788.27;1824279;78;20841;-61
2021/10/12 07:48:59;;;;;;;43.40;32.20;;;;;;;7.95;82.23;97786.94;1824484;78;20884;-61
2021/10/12 07:51:28;;;;;;;50.40;34.60;;;;;;;7.92;81.64;97786.67;1824365;78;20927;-61
2021/10/12 07:53:57;;;;;;;42.78;32.17;;;;;;;7.83;81.76;97778.48;1819596;77;21121;-71
2021/10/12 07:56:36;;;;;;;47.53;32.20;;;;;;;7.80;81.50;97784.36;1821816;78;20963;-64
2021/10/12 07:59:08;;;;;;;44.80;32.38;;;;;;;7.75;81.09;97783.06;1795306;77;20974;-62
2021/10/12 08:01:36;;;;;;;43.85;30.50;;;;;;;7.75;81.16;97779.06;1803414;77;21022;-60
2021/10/12 08:04:03;;;;;;;44.98;33.42;;;;;;;7.75;81.33;97776.39;1824474;77;20896;-59
2021/10/12 08:06:32;;;;;;;47.93;33.95;;;;;;;7.73;81.34;97775.87;1824675;77;21202;-60
2021/10/12 08:08:58;;;;;;;47.75;32.98;;;;;;;7.77;81.60;97766.27;1822889;77;21362;-58
2021/10/12 08:11:25;;;;;;;48.05;33.00;;;;;;;7.78;81.40;97761.19;1819935;77;21144;-61
2021/10/12 08:13:58;;;;;;;44.50;32.03;;;;;;;7.77;81.29;97765.47;1824034;77;20942;-60
2021/10/12 08:16:30;;;;;;;43.48;31.48;;;;;;;7.76;81.30;97761.20;1817804;77;21033;-60
2021/10/12 08:18:55;;;;;;;46.55;32.63;;;;;;;7.79;81.57;97762.79;1816070;77;21507;-59
2021/10/12 08:21:22;;;;;;;46.50;32.23;;;;;;;7.81;81.83;97764.64;1811177;78;20921;-58
2021/10/12 08:23:52;;;;;;;49.53;33.05;;;;;;;7.82;81.54;97762.22;1813365;78;21066;-57
2021/10/12 08:26:19;;;;;;;41.28;31.97;;;;;;;7.81;81.55;97757.97;1812126;77;21463;-60
2021/10/12 08:28:46;;;;;;;40.78;32.25;;;;;;;7.80;81.43;97754.23;1808047;79;20992;-60
2021/10/12 08:31:13;;;;;;;45.30;32.17;;;;;;;7.81;81.66;97753.97;1815085;79;21055;-59
2021/10/12 08:33:42;;;;;;;41.48;29.63;;;;;;;7.81;81.23;97745.17;1808619;77;21482;-61
2021/10/12 08:36:08;;;;;;;41.10;29.65;;;;;;;7.82;81.48;97742.78;1812604;78;21007;-58
2021/10/12 08:38:35;;;;;;;44.98;31.75;;;;;;;7.84;81.46;97738.76;1806812;79;21117;-56
2021/10/12 08:41:05;;;;;;;43.42;31.30;;;;;;;7.88;81.29;97735.78;1809204;79;21059;-57
2021/10/12 08:43:35;;;;;;;47.17;32.23;;;;;;;7.95;81.45;97729.59;1809480;79;21114;-58
2021/10/12 08:46:01;;;;;;;56.60;35.00;;;;;;;8.01;81.47;97732.47;1738396;82;21435;-60
2021/10/12 08:48:32;;;;;;;46.90;34.98;;;;;;;8.08;81.50;97726.27;1807379;77;21003;-58
2021/10/12 08:51:04;;;;;;;41.00;31.45;;;;;;;8.11;81.43;97718.25;1783938;78;21511;-62
2021/10/12 08:53:32;;;;;;;38.83;28.32;;;;;;;8.13;81.60;97714.23;1815434;78;20898;-62
2021/10/12 08:56:00;;;;;;;36.58;28.25;;;;;;;8.17;81.55;97716.58;1811142;79;21783;-63
2021/10/12 08:58:27;;;;;;;34.27;27.77;;;;;;;8.19;81.61;97717.13;1781296;79;21015;-60
2021/10/12 09:01:09;;;;;;;39.53;27.70;;;;;;;8.20;81.42;97725.36;1788153;77;21009;-61
2021/10/12 09:03:46;;;;;;;34.75;25.80;;;;;;;8.24;81.36;97726.95;1803390;77;21053;-58
2021/10/12 09:06:33;;;;;;;38.55;26.48;;;;;;;8.25;81.13;97721.32;1798308;79;21071;-62
2021/10/12 09:09:05;;;;;;;33.58;26.65;;;;;;;8.30;80.85;97725.04;1814694;79;20861;-61
2021/10/12 09:11:35;;;;;;;32.80;24.30;;;;;;;8.30;80.76;97726.38;1814993;78;21011;-61
2021/10/12 09:14:04;;;;;;;36.35;24.40;;;;;;;8.37;80.58;97730.84;1815479;78;20933;-62
2021/10/12 09:16:40;;;;;;;32.38;22.10;;;;;;;8.37;80.46;97725.50;1803689;78;20914;-63
2021/10/12 09:19:09;;;;;;;33.13;24.52;;;;;;;8.40;80.33;97723.61;1793008;77;21007;-62
2021/10/12 09:21:41;;;;;;;30.05;21.40;;;;;;;8.43;80.89;97731.84;1792697;80;21509;-59
2021/10/12 09:24:15;;;;;;;28.55;22.27;;;;;;;8.44;80.96;97729.97;1793104;79;21054;-58
2021/10/12 09:27:02;;;;;;;30.27;22.55;;;;;;;8.40;80.78;97728.95;1803888;78;21589;-61
2021/10/12 09:29:45;;;;;;;30.43;22.80;;;;;;;8.35;80.80;97726.33;1819804;77;21088;-62
2021/10/12 09:32:08;;;;;;;36.08;24.23;;;;;;;8.35;80.50;97720.99;1812178;78;21464;-62
2021/10/12 09:34:36;;;;;;;34.35;24.32;;;;;;;8.40;80.59;97722.28;1811894;78;21101;-58
2021/10/12 09:37:03;;;;;;;37.53;25.20;;;;;;;8.37;79.71;97720.17;1825937;78;21477;-59
2021/10/12 09:39:39;;;;;;;32.60;25.50;;;;;;;8.30;79.82;97721.84;1826553;78;20915;-62
2021/10/12 09:42:10;;;;;;;34.63;25.32;;;;;;;8.28;79.25;97717.86;1818580;78;21537;-60
2021/10/12 09:44:38;;;;;;;33.40;26.52;;;;;;;8.33;79.22;97713.81;1811680;78;21062;-62
2021/10/12 09:47:15;;;;;;;43.45;28.80;;;;;;;8.42;79.25;97714.25;1793940;80;21642;-63
2021/10/12 09:49:43;;;;;;;41.45;30.05;;;;;;;8.51;79.17;97705.08;1794339;80;20891;-63
2021/10/12 09:52:17;;;;;;;41.25;28.12;;;;;;;8.59;78.81;97703.12;1793920;80;20888;-63
2021/10/12 09:54:57;;;;;;;36.95;26.02;;;;;;;8.63;78.74;97704.95;1792507;79;21099;-64
2021/10/12 09:57:28;;;;;;;41.92;28.35;;;;;;;8.63;78.35;97698.80;1808406;77;21051;-62
2021/10/12 09:59:54;;;;;;;37.03;29.42;;;;;;;8.67;78.32;97691.81;1823016;78;21083;-61
2021/10/12 10:02:22;;;;;;;51.90;30.15;;;;;;;8.77;78.10;97687.16;1817647;78;21094;-60
2021/10/12 10:04:51;;;;;;;40.23;28.62;;;;;;;8.87;77.76;97684.91;1792242;80;21110;-61
2021/10/12 10:07:46;;;;;;;37.63;29.05;;;;;;;8.95;77.27;97684.25;1794393;80;20950;-58
2021/10/12 10:10:16;;;;;;;39.70;28.70;;;;;;;8.98;76.81;97681.02;1793683;79;20986;-60
2021/10/12 10:12:43;;;;;;;40.30;28.70;;;;;;;9.02;76.45;97683.36;1794198;78;21530;-61
2021/10/12 10:15:11;;;;;;;44.18;30.30;;;;;;;9.02;75.66;97675.34;1794075;80;21037;-57
2021/10/12 10:17:40;;;;;;;46.02;28.85;;;;;;;9.06;75.39;97676.37;1803371;78;20880;-58
2021/10/12 10:20:09;;;;;;;40.80;28.83;;;;;;;9.08;75.53;97674.21;1822292;78;21054;-61
2021/10/12 10:54:53;;;;;;;50.20;31.95;;;;;;;8.74;75.92;97640.99;1862676;75;22771;-59
2021/10/12 10:57:21;;;;;;;41.25;30.27;;;;;;;8.72;76.22;97643.69;1851904;77;20967;-59
2021/10/12 11:00:15;;;;;;;40.88;27.93;;;;;;;8.80;76.54;97639.06;1861873;77;21599;-57
2021/10/12 11:02:43;;;;;;;45.65;28.73;;;;;;;8.87;75.86;97642.17;1860590;77;20934;-61
2021/10/12 11:05:10;;;;;;;42.27;28.42;;;;;;;8.95;75.27;97640.17;1853665;77;20930;-62
2021/10/12 11:07:37;;;;;;;42.55;30.17;;;;;;;9.01;75.44;97641.72;1812589;77;20950;-62
2021/10/12 11:10:05;;;;;;;43.48;30.02;;;;;;;9.08;75.71;97640.81;1832072;77;21004;-61
2021/10/12 11:12:32;;;;;;;39.85;28.38;;;;;;;9.16;75.49;97640.15;1856740;77;21521;-59
2021/10/12 11:15:07;;;;;;;41.50;30.55;;;;;;;9.21;74.82;97636.64;1823427;77;21006;-58
2021/10/12 11:17:34;;;;;;;39.65;29.15;;;;;;;9.17;74.96;97640.41;1790313;80;21588;-62
2021/10/12 11:20:14;;;;;;;42.25;29.55;;;;;;;9.17;74.43;97639.08;1794887;79;21009;-62
2021/10/12 11:22:42;;;;;;;36.10;26.82;;;;;;;9.24;74.12;97634.70;1804399;78;21497;-60
2021/10/12 11:25:11;;;;;;;40.40;27.58;;;;;;;9.25;73.84;97633.63;1825723;78;21458;-63
2021/10/12 11:27:44;;;;;;;38.78;27.75;;;;;;;9.26;73.68;97634.66;1825585;78;21050;-63
2021/10/12 11:30:13;;;;;;;43.73;26.60;;;;;;;9.26;73.18;97637.34;1805433;78;21029;-58
2021/10/12 11:32:40;;;;;;;38.30;26.33;;;;;;;9.27;72.42;97645.63;1819256;78;21010;-61
2021/10/12 11:35:11;;;;;;;36.88;27.15;;;;;;;9.28;71.71;97637.84;1826519;78;20958;-60
2021/10/12 11:37:55;;;;;;;37.70;27.65;;;;;;;9.28;70.73;97635.16;1825674;78;21128;-57
2021/10/12 11:40:24;;;;;;;38.98;28.75;;;;;;;9.27;70.60;97632.26;1824468;78;21001;-58
2021/10/12 11:43:02;;;;;;;39.18;28.02;;;;;;;9.24;70.74;97624.81;1820823;78;20994;-58
2021/10/12 11:45:31;;;;;;;41.37;27.93;;;;;;;9.22;70.25;97626.98;1793526;80;21567;-59
2021/10/12 11:47:58;;;;;;;42.10;28.38;;;;;;;9.20;70.29;97619.80;1812704;78;21097;-59
2021/10/12 11:50:25;;;;;;;39.38;28.85;;;;;;;9.15;70.55;97623.87;1825208;78;21115;-61
2021/10/12 11:52:54;;;;;;;34.48;26.90;;;;;;;9.15;70.74;97621.21;1825911;78;20938;-59
2021/10/12 11:55:26;;;;;;;35.88;25.80;;;;;;;9.17;70.89;97616.37;1817829;78;21019;-60
2021/10/12 11:57:53;;;;;;;36.48;27.10;;;;;;;9.20;71.32;97615.80;1818916;78;21029;-60
2021/10/12 12:00:38;;;;;;;37.95;27.48;;;;;;;9.24;70.70;97615.45;1792932;78;21061;-63
2021/10/12 12:03:18;;;;;;;39.40;27.45;;;;;;;9.27;70.53;97618.09;1820635;78;21220;-58
2021/10/12 12:05:56;;;;;;;36.20;26.80;;;;;;;9.27;70.62;97613.55;1818762;78;21536;-59
2021/10/12 12:08:24;;;;;;;38.75;26.45;;;;;;;9.33;70.86;97616.39;1807939;78;20927;-60
2021/10/12 12:10:51;;;;;;;35.00;26.82;;;;;;;9.32;70.39;97613.48;1816937;78;21526;-59
2021/10/12 12:13:18;;;;;;;36.90;27.87;;;;;;;9.33;70.17;97608.91;1816865;78;20868;-61
2021/10/12 12:15:44;;;;;;;46.30;32.42;;;;;;;9.35;70.65;97610.20;1816415;78;21025;-61
2021/10/12 12:18:16;;;;;;;47.70;35.80;;;;;;;9.37;70.03;97605.36;1814895;79;20892;-61
2021/10/12 12:21:01;;;;;;;44.33;33.95;;;;;;;9.35;70.13;97601.41;1784447;80;20884;-60
2021/10/12 12:23:43;;;;;;;40.00;28.95;;;;;;;9.34;70.50;97599.81;1791729;79;20963;-58
2021/10/12 12:26:14;;;;;;;39.88;30.60;;;;;;;9.35;70.11;97596.84;1793989;79;21068;-59
2021/10/12 12:28:41;;;;;;;37.67;29.63;;;;;;;9.35;69.91;97591.49;1818498;78;21063;-58
2021/10/12 12:31:23;;;;;;;40.67;28.85;;;;;;;9.33;69.98;97591.53;1820193;78;20863;-61
2021/10/12 12:33:52;;;;;;;38.80;27.77;;;;;;;9.33;70.38;97593.67;1815490;78;21208;-59
2021/10/12 12:36:20;;;;;;;36.77;27.75;;;;;;;9.37;70.50;97591.22;1816952;79;21018;-58
2021/10/12 12:38:47;;;;;;;35.52;28.32;;;;;;;9.39;70.30;97589.84;1818029;78;20942;-61
2021/10/12 12:41:25;;;;;;;39.48;28.55;;;;;;;9.42;70.12;97590.58;1820404;78;21090;-60
2021/10/12 12:43:57;;;;;;;42.62;28.75;;;;;;;9.45;69.69;97588.66;1816811;78;21042;-61
2021/10/12 12:46:25;;;;;;;44.27;27.90;;;;;;;9.45;69.56;97584.66;1817618;78;21404;-59
2021/10/12 12:49:17;;;;;;;38.35;28.05;;;;;;;9.42;69.56;97583.89;1818146;79;21858;-59
2021/10/12 12:51:46;;;;;;;40.15;28.45;;;;;;;9.41;69.62;97582.33;1815373;78;20907;-60
2021/10/12 12:54:36;;;;;;;41.08;28.90;;;;;;;9.35;69.33;97586.71;1815078;79;21096;-61
2021/10/12 12:57:09;;;;;;;41.80;27.77;;;;;;;9.29;69.79;97590.00;1811783;79;21490;-61
2021/10/12 12:59:37;;;;;;;34.45;27.62;;;;;;;9.28;69.85;97591.07;1792048;80;20916;-62
2021/10/12 13:02:05;;;;;;;36.85;27.30;;;;;;;9.23;69.83;97593.05;1774365;80;20935;-59
2021/10/12 13:04:34;;;;;;;35.90;26.97;;;;;;;9.21;69.72;97589.88;1786633;79;20901;-62
2021/10/12 13:07:01;;;;;;;37.78;27.77;;;;;;;9.20;69.75;97589.08;1807692;79;21399;-60
2021/10/12 13:09:30;;;;;;;42.62;27.80;;;;;;;9.22;70.00;97586.91;1809953;79;20981;-61
2021/10/12 13:11:58;;;;;;;39.78;27.48;;;;;;;9.21;69.90;97586.64;1807725;78;21005;-61
2021/10/12 13:17:01;;;;;;;38.85;26.95;;;;;;;9.24;69.66;97584.73;1799218;79;20934;-61
2021/10/12 13:19:28;;;;;;;40.60;26.93;;;;;;;9.25;69.53;97583.66;1811197;79;21143;-63
2021/10/12 13:21:55;;;;;;;38.65;28.05;;;;;;;9.29;69.60;97584.66;1811055;79;20939;-58
2021/10/12 13:24:22;;;;;;;40.40;27.82;;;;;;;9.33;69.50;97584.31;1783202;79;20920;-61
2021/10/12 13:26:48;;;;;;;36.83;28.42;;;;;;;9.31;69.45;97593.17;1807792;79;21506;-60
2021/10/12 13:29:16;;;;;;;36.30;28.05;;;;;;;9.27;69.67;97592.17;1811354;79;21069;-61
2021/10/12 13:31:43;;;;;;;39.53;27.37;;;;;;;9.24;69.78;97591.41;1812142;79;21165;-57
2021/10/12 13:34:09;;;;;;;39.23;27.40;;;;;;;9.24;70.02;97597.29;1811086;79;21446;-59
2021/10/12 13:36:37;;;;;;;37.78;26.48;;;;;;;9.22;70.32;97582.89;1812658;79;21489;-60
2021/10/12 13:39:04;;;;;;;42.67;27.13;;;;;;;9.21;70.13;97585.30;1813262;79;20993;-61
2021/10/12 13:41:32;;;;;;;34.20;26.25;;;;;;;9.22;70.09;97587.44;1812554;79;20863;-58
2021/10/12 13:43:59;;;;;;;40.05;27.00;;;;;;;9.25;70.16;97589.53;1811646;79;21664;-58
2021/10/12 13:46:25;;;;;;;37.10;27.45;;;;;;;9.25;69.90;97583.66;1807217;79;21019;-58
2021/10/12 13:48:52;;;;;;;37.08;27.13;;;;;;;9.30;69.97;97588.89;1806177;79;20958;-60
2021/10/12 13:51:20;;;;;;;40.95;28.87;;;;;;;9.35;70.09;97586.15;1807005;79;21537;-60
2021/10/12 13:53:47;;;;;;;37.50;28.70;;;;;;;9.33;69.82;97586.98;1809979;79;21002;-58
2021/10/12 13:56:14;;;;;;;36.85;27.82;;;;;;;9.28;70.00;97584.39;1814656;79;21104;-57
2021/10/12 13:58:40;;;;;;;40.17;29.67;;;;;;;9.26;70.19;97583.89;1814721;79;20873;-58
2021/10/12 14:01:09;;;;;;;39.85;28.73;;;;;;;9.21;70.42;97587.97;1855179;77;20820;-59
2021/10/12 14:03:36;;;;;;;41.50;28.15;;;;;;;9.18;70.65;97589.91;1822728;77;20931;-58
2021/10/12 14:06:03;;;;;;;40.98;27.65;;;;;;;9.18;70.68;97591.78;1855125;77;20959;-57
2021/10/12 14:08:30;;;;;;;42.25;28.83;;;;;;;9.16;71.08;97592.62;1855443;77;21427;-57
2021/10/12 14:10:57;;;;;;;39.42;29.72;;;;;;;9.15;71.03;97593.69;1854937;77;20915;-57
2021/10/12 14:13:26;;;;;;;40.20;28.70;;;;;;;9.16;71.58;97599.30;1855152;77;20970;-59
2021/10/12 14:15:53;;;;;;;35.68;29.07;;;;;;;9.18;71.55;97592.58;1854799;77;21031;-57
